createdAt,value
2022-12-17T00:02:19.230Z,9.13
2022-12-17T00:05:05.861Z,9.14
2022-12-17T00:07:52.438Z,9.17
2022-12-17T00:10:38.795Z,9.13
2022-12-17T00:13:37.774Z,9.19
2022-12-17T00:16:27.086Z,9.20
2022-12-17T00:19:13.970Z,9.24
2022-12-17T00:22:00.464Z,9.27
2022-12-17T00:24:47.185Z,9.31
2022-12-17T00:27:35.195Z,9.31
2022-12-17T00:30:22.199Z,9.36
2022-12-17T00:33:09.871Z,9.37
2022-12-17T00:35:56.876Z,9.35
2022-12-17T00:38:43.605Z,9.33
2022-12-17T00:41:30.285Z,9.37
2022-12-17T00:44:25.938Z,9.40
2022-12-17T00:47:12.553Z,9.39
2022-12-17T00:49:59.163Z,9.38
2022-12-17T00:52:45.663Z,9.44
2022-12-17T00:55:31.996Z,9.49
2022-12-17T00:58:18.398Z,9.48
2022-12-17T01:01:04.743Z,9.45
2022-12-17T01:03:50.983Z,9.48
2022-12-17T01:06:38.745Z,9.49
2022-12-17T01:09:25.057Z,9.52
2022-12-17T01:12:11.736Z,9.59
2022-12-17T01:14:58.385Z,9.61
2022-12-17T01:17:44.810Z,9.61
2022-12-17T01:20:31.401Z,9.65
2022-12-17T01:23:17.987Z,9.66
2022-12-17T01:26:12.788Z,9.63
2022-12-17T01:29:00.228Z,9.60
2022-12-17T01:31:47.334Z,9.62
2022-12-17T01:34:33.962Z,9.62
2022-12-17T01:37:22.883Z,9.60
2022-12-17T01:40:09.083Z,9.64
2022-12-17T01:43:00.607Z,9.68
2022-12-17T01:45:58.044Z,9.64
2022-12-17T01:48:52.818Z,9.61
2022-12-17T01:51:39.590Z,9.55
2022-12-17T01:54:26.054Z,9.48
2022-12-17T01:57:17.775Z,9.46
2022-12-17T02:00:16.481Z,9.48
2022-12-17T02:03:03.089Z,9.42
2022-12-17T02:06:00.582Z,9.41
2022-12-17T02:08:55.887Z,9.44
2022-12-17T02:11:52.687Z,9.45
2022-12-17T02:14:55.704Z,9.50
2022-12-17T02:17:50.530Z,9.48
2022-12-17T02:20:57.292Z,9.47
2022-12-17T02:24:11.599Z,9.45
2022-12-17T02:27:10.263Z,9.43
2022-12-17T02:30:02.036Z,9.38
2022-12-17T02:32:52.668Z,9.37
2022-12-17T02:35:49.543Z,9.40
2022-12-17T02:38:41.392Z,9.44
2022-12-17T02:41:40.681Z,9.48
2022-12-17T02:44:31.877Z,9.52
2022-12-17T02:47:21.567Z,9.59
2022-12-17T02:50:08.893Z,9.61
2022-12-17T02:53:01.285Z,9.61
2022-12-17T02:55:47.865Z,9.60
2022-12-17T02:58:35.392Z,9.59
2022-12-17T03:01:22.242Z,9.60
2022-12-17T03:04:08.849Z,9.57
2022-12-17T03:06:55.227Z,9.54
2022-12-17T03:09:41.801Z,9.53
2022-12-17T03:12:29.237Z,9.52
2022-12-17T03:15:15.572Z,9.52
2022-12-17T03:18:02.196Z,9.56
2022-12-17T03:20:48.720Z,9.57
2022-12-17T03:23:36.010Z,9.55
2022-12-17T03:26:22.903Z,9.52
2022-12-17T03:29:09.453Z,9.56
2022-12-17T03:31:56.678Z,9.58
2022-12-17T03:34:43.262Z,9.61
2022-12-17T03:37:29.861Z,9.62
2022-12-17T03:40:16.563Z,9.63
2022-12-17T03:43:02.849Z,9.63
2022-12-17T03:45:49.494Z,9.58
2022-12-17T03:48:36.447Z,9.41
2022-12-17T03:51:22.761Z,9.24
2022-12-17T03:54:09.296Z,9.10
2022-12-17T03:56:55.568Z,8.92
2022-12-17T03:59:42.086Z,8.70
2022-12-17T04:02:28.872Z,8.57
2022-12-17T04:05:20.126Z,8.44
2022-12-17T04:08:07.456Z,8.35
2022-12-17T04:10:54.052Z,8.26
2022-12-17T04:13:41.537Z,8.22
2022-12-17T04:16:31.530Z,8.11
2022-12-17T04:19:18.161Z,8.02
2022-12-17T04:22:04.533Z,7.94
2022-12-17T04:24:51.105Z,7.86
2022-12-17T04:27:38.022Z,7.83
2022-12-17T04:30:24.844Z,7.78
2022-12-17T04:33:11.432Z,7.73
2022-12-17T04:35:58.090Z,7.63
2022-12-17T04:38:44.765Z,7.59
2022-12-17T04:41:31.469Z,7.57
2022-12-17T04:44:18.068Z,7.51
2022-12-17T04:47:04.452Z,7.43
2022-12-17T04:49:51.051Z,7.40
2022-12-17T04:52:51.522Z,7.38
2022-12-17T04:55:38.198Z,7.34
2022-12-17T04:58:26.080Z,7.29
2022-12-17T05:01:13.670Z,7.25
2022-12-17T05:04:00.200Z,7.21
2022-12-17T05:06:47.082Z,7.22
2022-12-17T05:09:33.574Z,7.20
2022-12-17T05:12:20.077Z,7.16
2022-12-17T05:15:06.275Z,7.08
2022-12-17T05:17:52.595Z,7.07
2022-12-17T05:20:39.095Z,7.03
2022-12-17T05:23:27.146Z,6.95
2022-12-17T05:26:37.763Z,6.94
2022-12-17T05:29:24.275Z,6.98
2022-12-17T05:32:10.624Z,6.94
2022-12-17T05:34:57.202Z,6.89
2022-12-17T05:37:43.763Z,6.81
2022-12-17T05:40:30.667Z,6.74
2022-12-17T05:43:20.315Z,6.70
2022-12-17T05:46:07.481Z,6.68
2022-12-17T05:48:54.376Z,6.69
2022-12-17T05:51:41.768Z,6.69
2022-12-17T05:54:28.409Z,6.72
2022-12-17T05:57:15.219Z,6.67
2022-12-17T06:00:01.996Z,6.62
2022-12-17T06:02:58.953Z,6.61
2022-12-17T06:05:45.723Z,6.58
2022-12-17T06:08:32.315Z,6.54
2022-12-17T06:11:18.936Z,6.50
2022-12-17T06:14:05.443Z,6.47
2022-12-17T06:16:51.838Z,6.47
2022-12-17T06:19:38.342Z,6.46
2022-12-17T06:22:24.738Z,6.43
2022-12-17T06:25:11.743Z,6.37
2022-12-17T06:27:58.434Z,6.35
2022-12-17T06:30:45.073Z,6.39
2022-12-17T06:33:31.703Z,6.40
2022-12-17T06:36:23.132Z,6.38
2022-12-17T06:39:09.689Z,6.39
2022-12-17T06:42:03.738Z,6.42
2022-12-17T06:44:51.089Z,6.44
2022-12-17T06:47:38.408Z,6.42
2022-12-17T06:50:25.991Z,6.43
2022-12-17T06:53:22.901Z,6.39
2022-12-17T06:56:09.910Z,6.41
2022-12-17T06:58:56.319Z,6.36
2022-12-17T07:01:43.023Z,6.35
2022-12-17T07:04:29.676Z,6.36
2022-12-17T07:07:16.463Z,6.33
2022-12-17T07:10:03.028Z,6.30
2022-12-17T07:15:44.550Z,6.22
2022-12-17T07:18:30.846Z,6.13
2022-12-17T07:21:17.460Z,6.09
2022-12-17T07:24:07.559Z,6.06
2022-12-17T07:26:54.139Z,5.96
2022-12-17T07:29:40.601Z,5.93
2022-12-17T07:32:26.955Z,5.89
2022-12-17T07:35:13.471Z,5.78
2022-12-17T07:37:59.811Z,5.68
2022-12-17T07:40:46.300Z,5.62
2022-12-17T07:43:34.052Z,5.51
2022-12-17T07:46:20.968Z,5.44
2022-12-17T07:49:07.602Z,5.38
2022-12-17T07:51:54.149Z,5.29
2022-12-17T07:54:40.862Z,5.24
2022-12-17T07:57:27.048Z,5.25
2022-12-17T08:00:13.723Z,5.20
2022-12-17T08:03:00.553Z,5.10
2022-12-17T08:05:47.152Z,5.04
2022-12-17T08:08:34.143Z,4.90
2022-12-17T08:11:20.652Z,4.84
2022-12-17T08:14:07.053Z,4.84
2022-12-17T08:16:53.535Z,4.73
2022-12-17T08:19:41.039Z,4.63
2022-12-17T08:22:27.700Z,4.57
2022-12-17T08:25:17.258Z,4.63
2022-12-17T08:28:10.915Z,4.67
2022-12-17T08:31:07.034Z,4.72
2022-12-17T08:33:53.989Z,4.67
2022-12-17T08:36:40.416Z,4.55
2022-12-17T08:39:27.002Z,4.54
2022-12-17T08:42:13.605Z,4.56
2022-12-17T08:45:00.299Z,4.58
2022-12-17T08:47:46.768Z,4.52
2022-12-17T08:50:33.206Z,4.50
2022-12-17T08:53:21.207Z,4.55
2022-12-17T08:56:08.080Z,4.49
2022-12-17T08:58:58.827Z,4.52
2022-12-17T09:01:46.126Z,4.54
2022-12-17T09:04:32.543Z,4.51
2022-12-17T09:07:19.381Z,4.52
2022-12-17T09:10:06.088Z,4.57
2022-12-17T09:12:52.693Z,4.65
2022-12-17T09:15:39.354Z,4.69
2022-12-17T09:18:25.524Z,4.55
2022-12-17T09:21:14.024Z,4.54
2022-12-17T09:24:00.613Z,4.54
2022-12-17T09:26:46.911Z,4.57
2022-12-17T09:29:33.562Z,4.52
2022-12-17T09:32:19.881Z,4.53
2022-12-17T09:35:06.225Z,4.47
2022-12-17T09:37:53.003Z,4.48
2022-12-17T09:40:43.252Z,4.57
2022-12-17T09:43:55.587Z,4.54
2022-12-17T09:46:57.239Z,4.56
2022-12-17T09:49:47.165Z,4.59
2022-12-17T09:52:47.720Z,4.57
2022-12-17T09:55:40.310Z,4.55
2022-12-17T09:58:41.585Z,4.55
2022-12-17T10:01:41.880Z,4.56
2022-12-17T10:04:43.688Z,4.55
2022-12-17T10:07:33.809Z,4.47
2022-12-17T10:10:34.294Z,4.43
2022-12-17T10:13:20.750Z,4.43
2022-12-17T10:16:07.834Z,4.38
2022-12-17T10:18:54.147Z,4.37
2022-12-17T10:21:46.478Z,4.33
2022-12-17T10:24:33.550Z,4.33
2022-12-17T10:27:28.825Z,4.26
2022-12-17T10:30:15.229Z,4.23
2022-12-17T10:33:01.795Z,4.25
2022-12-17T10:35:56.315Z,4.32
2022-12-17T10:38:46.511Z,4.31
2022-12-17T10:41:54.339Z,4.29
2022-12-17T10:44:44.238Z,4.25
2022-12-17T10:47:33.368Z,4.20
2022-12-17T10:50:22.821Z,4.17
2022-12-17T10:53:10.408Z,4.14
2022-12-17T10:56:11.401Z,4.07
2022-12-17T10:59:06.502Z,4.05
2022-12-17T11:01:54.005Z,3.98
2022-12-17T11:04:49.782Z,4.02
2022-12-17T11:07:48.383Z,4.02
2022-12-17T11:10:41.473Z,4.03
2022-12-17T11:13:32.725Z,4.00
2022-12-17T11:16:19.706Z,3.97
2022-12-17T11:19:34.809Z,3.96
2022-12-17T11:22:34.623Z,3.93
2022-12-17T11:25:26.339Z,3.90
2022-12-17T11:28:23.777Z,3.92
2022-12-17T11:31:21.474Z,3.91
2022-12-17T11:34:29.802Z,3.93
2022-12-17T11:37:49.860Z,4.00
2022-12-17T11:40:59.301Z,4.01
2022-12-17T11:43:45.453Z,4.04
2022-12-17T11:46:38.409Z,4.02
2022-12-17T11:49:40.864Z,4.03
2022-12-17T11:52:42.824Z,4.07
2022-12-17T11:55:38.944Z,4.12
2022-12-17T11:58:52.251Z,4.17
2022-12-17T12:01:57.944Z,4.24
2022-12-17T12:04:54.041Z,4.26
2022-12-17T12:08:01.340Z,4.33
2022-12-17T12:11:10.929Z,4.40
2022-12-17T12:14:16.734Z,4.41
2022-12-17T12:17:20.032Z,4.31
2022-12-17T12:20:22.865Z,4.26
2022-12-17T12:23:31.276Z,4.22
2022-12-17T12:26:31.577Z,4.15
2022-12-17T12:29:37.195Z,4.11
2022-12-17T12:32:33.106Z,4.06
2022-12-17T12:35:22.924Z,4.06
2022-12-17T12:38:09.462Z,3.97
2022-12-17T12:41:05.210Z,3.90
2022-12-17T12:43:58.045Z,3.86
2022-12-17T12:46:47.466Z,3.83
2022-12-17T12:49:34.141Z,3.83
2022-12-17T12:52:20.891Z,3.82
2022-12-17T12:55:13.167Z,3.77
2022-12-17T12:58:02.274Z,3.81
2022-12-17T13:01:02.045Z,3.84
2022-12-17T13:04:09.042Z,3.88
2022-12-17T13:06:50.939Z,3.88
2022-12-17T13:09:34.496Z,3.81
2022-12-17T13:12:03.111Z,3.69
2022-12-17T13:14:52.492Z,3.72
2022-12-17T13:17:35.944Z,3.71
2022-12-17T13:20:24.262Z,3.74
2022-12-17T13:23:05.939Z,3.77
2022-12-17T13:25:33.797Z,3.71
2022-12-17T13:28:01.807Z,3.71
2022-12-17T13:30:35.536Z,3.73
2022-12-17T13:33:29.867Z,3.77
2022-12-17T13:36:35.663Z,3.73
2022-12-17T13:39:13.874Z,3.78
2022-12-17T13:41:41.770Z,3.76
2022-12-17T13:44:21.911Z,3.76
2022-12-17T13:46:51.922Z,3.75
2022-12-17T13:49:25.574Z,3.73
2022-12-17T13:52:11.684Z,3.65
2022-12-17T13:54:39.967Z,3.57
2022-12-17T13:57:18.595Z,3.58
2022-12-17T13:59:55.259Z,3.55
2022-12-17T14:02:27.694Z,3.57
2022-12-17T14:05:01.706Z,3.58
2022-12-17T14:07:38.101Z,3.57
2022-12-17T14:10:16.445Z,3.53
2022-12-17T14:12:44.871Z,3.58
2022-12-17T14:15:30.062Z,3.53
2022-12-17T14:17:59.288Z,3.48
2022-12-17T14:20:32.376Z,3.45
2022-12-17T14:23:07.525Z,3.50
2022-12-17T14:25:42.536Z,3.48
2022-12-17T14:28:32.263Z,3.50
2022-12-17T14:31:27.577Z,3.43
2022-12-17T14:34:08.156Z,3.43
2022-12-17T14:36:39.340Z,3.41
2022-12-17T14:39:21.115Z,3.38
2022-12-17T14:42:07.791Z,3.26
2022-12-17T14:44:47.958Z,3.28
2022-12-17T14:47:22.065Z,3.24
2022-12-17T14:50:19.157Z,3.18
2022-12-17T14:52:57.718Z,3.15
2022-12-17T14:55:39.187Z,3.12
2022-12-17T14:58:12.779Z,3.12
2022-12-17T15:00:54.377Z,3.14
2022-12-17T15:03:29.346Z,3.12
2022-12-17T15:06:02.221Z,3.11
2022-12-17T15:08:33.929Z,3.12
2022-12-17T15:11:02.731Z,3.08
2022-12-17T15:13:30.970Z,3.01
2022-12-17T15:16:01.027Z,3.00
2022-12-17T15:18:29.234Z,2.99
2022-12-17T15:20:57.299Z,3.00
2022-12-17T15:23:25.384Z,2.98
2022-12-17T15:25:54.284Z,2.98
2022-12-17T15:28:24.040Z,2.93
2022-12-17T15:30:53.616Z,2.92
2022-12-17T15:33:22.040Z,2.90
2022-12-17T15:35:50.030Z,2.88
2022-12-17T15:38:17.914Z,2.82
2022-12-17T15:40:45.930Z,2.74
2022-12-17T15:43:15.334Z,2.69
2022-12-17T15:45:45.981Z,2.69
2022-12-17T15:48:23.367Z,2.76
2022-12-17T15:50:51.360Z,2.77
2022-12-17T15:53:19.290Z,2.78
2022-12-17T15:55:47.259Z,2.84
2022-12-17T15:58:16.263Z,2.83
2022-12-17T16:00:44.366Z,2.78
2022-12-17T16:03:12.619Z,2.74
2022-12-17T16:05:40.854Z,2.73
2022-12-17T16:08:09.017Z,2.73
2022-12-17T16:10:38.778Z,2.73
2022-12-17T16:13:06.696Z,2.70
2022-12-17T16:15:34.666Z,2.72
2022-12-17T16:18:02.633Z,2.74
2022-12-17T16:20:30.587Z,2.74
2022-12-17T16:22:58.432Z,2.72
2022-12-17T16:25:26.386Z,2.72
2022-12-17T16:27:54.223Z,2.67
2022-12-17T16:30:22.281Z,2.68
2022-12-17T16:32:50.242Z,2.64
2022-12-17T16:35:18.160Z,2.52
2022-12-17T16:37:46.170Z,2.42
2022-12-17T16:40:14.195Z,2.35
2022-12-17T16:42:42.342Z,2.36
2022-12-17T16:45:10.612Z,2.36
2022-12-17T16:47:38.546Z,2.33
2022-12-17T16:50:06.693Z,2.31
2022-12-17T16:52:35.028Z,2.31
2022-12-17T16:55:02.946Z,2.23
2022-12-17T16:57:30.888Z,2.28
2022-12-17T16:59:58.807Z,2.28
2022-12-17T17:02:26.928Z,2.28
2022-12-17T17:04:55.152Z,2.31
2022-12-17T17:07:22.978Z,2.33
2022-12-17T17:09:50.980Z,2.32
2022-12-17T17:12:18.969Z,2.36
2022-12-17T17:14:46.918Z,2.33
2022-12-17T17:17:14.927Z,2.35
2022-12-17T17:19:42.793Z,2.35
2022-12-17T17:22:10.686Z,2.27
2022-12-17T17:24:38.538Z,2.25
2022-12-17T17:27:06.424Z,2.21
2022-12-17T17:29:36.238Z,2.19
2022-12-17T17:32:13.190Z,2.17
2022-12-17T17:34:41.885Z,2.23
2022-12-17T17:37:10.242Z,2.25
2022-12-17T17:39:38.145Z,2.29
2022-12-17T17:42:06.107Z,2.32
2022-12-17T17:44:34.281Z,2.29
2022-12-17T17:47:02.350Z,2.27
2022-12-17T17:49:30.476Z,2.25
2022-12-17T17:52:13.844Z,2.16
2022-12-17T17:54:42.038Z,2.21
2022-12-17T17:57:11.756Z,2.18
2022-12-17T17:59:39.937Z,2.21
2022-12-17T18:02:11.367Z,2.21
2022-12-17T18:04:40.085Z,2.24
2022-12-17T18:09:56.289Z,2.25
2022-12-17T18:12:42.864Z,2.26
2022-12-17T18:15:15.866Z,2.22
2022-12-17T18:17:47.584Z,2.20
2022-12-17T18:20:16.874Z,2.14
2022-12-17T18:22:46.507Z,2.17
2022-12-17T18:25:16.744Z,2.15
2022-12-17T18:27:45.145Z,2.19
2022-12-17T18:30:13.911Z,2.20
2022-12-17T18:32:42.510Z,2.18
2022-12-17T18:35:10.488Z,2.15
2022-12-17T18:37:39.173Z,2.14
2022-12-17T18:40:08.587Z,2.09
2022-12-17T18:42:55.056Z,2.07
2022-12-17T18:45:23.000Z,2.11
2022-12-17T18:47:51.301Z,2.07
2022-12-17T18:50:19.453Z,2.08
2022-12-17T18:52:49.996Z,2.09
2022-12-17T18:55:20.708Z,2.14
2022-12-17T18:57:48.510Z,2.13
2022-12-17T19:00:16.764Z,2.08
2022-12-17T19:02:44.824Z,2.07
2022-12-17T19:05:13.112Z,2.00
2022-12-17T19:07:40.894Z,2.00
2022-12-17T19:10:09.663Z,2.00
2022-12-17T19:12:37.732Z,1.99
2022-12-17T19:15:06.083Z,1.98
2022-12-17T19:17:34.631Z,1.98
2022-12-17T19:20:02.667Z,1.98
2022-12-17T19:22:31.005Z,1.99
2022-12-17T19:24:58.765Z,1.98
2022-12-17T19:27:26.773Z,2.00
2022-12-17T19:29:57.058Z,1.92
2022-12-17T19:32:24.934Z,1.85
2022-12-17T19:34:53.037Z,1.82
2022-12-17T19:37:21.207Z,1.78
2022-12-17T19:39:49.178Z,1.78
2022-12-17T19:42:28.349Z,1.75
2022-12-17T19:44:59.038Z,1.76
2022-12-17T19:47:30.601Z,1.81
2022-12-17T19:49:58.285Z,1.84
2022-12-17T19:52:26.265Z,1.81
2022-12-17T19:54:54.065Z,1.85
2022-12-17T19:57:21.960Z,1.84
2022-12-17T19:59:49.893Z,1.81
2022-12-17T20:02:18.143Z,1.83
2022-12-17T20:04:46.072Z,1.86
2022-12-17T20:07:13.909Z,1.86
2022-12-17T20:09:44.724Z,1.84
2022-12-17T20:12:13.041Z,1.82
2022-12-17T20:14:40.982Z,1.83
2022-12-17T20:17:09.738Z,1.80
2022-12-17T20:19:37.663Z,1.83
2022-12-17T20:22:06.391Z,1.76
2022-12-17T20:24:34.523Z,1.75
2022-12-17T20:27:02.809Z,1.72
2022-12-17T20:29:30.868Z,1.63
2022-12-17T20:32:01.963Z,1.46
2022-12-17T20:34:30.213Z,1.30
2022-12-17T20:36:58.062Z,1.17
2022-12-17T20:39:28.224Z,1.04
2022-12-17T20:41:57.491Z,0.92
2022-12-17T20:44:25.970Z,0.85
2022-12-17T20:46:53.901Z,0.79
2022-12-17T20:49:21.935Z,0.66
2022-12-17T20:51:49.894Z,0.57
2022-12-17T20:54:18.546Z,0.54
2022-12-17T20:56:47.028Z,0.52
2022-12-17T20:59:17.807Z,0.51
2022-12-17T21:01:51.474Z,0.51
2022-12-17T21:04:23.246Z,0.47
2022-12-17T21:06:51.621Z,0.40
2022-12-17T21:09:20.994Z,0.39
2022-12-17T21:11:49.094Z,0.31
2022-12-17T21:14:19.526Z,0.22
2022-12-17T21:16:48.126Z,0.19
2022-12-17T21:19:18.905Z,0.20
2022-12-17T21:21:47.210Z,0.17
2022-12-17T21:24:15.349Z,0.17
2022-12-17T21:26:44.807Z,0.13
2022-12-17T21:29:14.626Z,0.08
2022-12-17T21:31:46.344Z,0.03
2022-12-17T21:34:21.862Z,-0.03
2022-12-17T21:36:51.161Z,-0.13
2022-12-17T21:39:20.079Z,-0.18
2022-12-17T21:42:07.712Z,-0.25
2022-12-17T21:44:36.798Z,-0.29
2022-12-17T21:47:05.280Z,-0.28
2022-12-17T21:49:33.260Z,-0.31
2022-12-17T21:52:02.274Z,-0.38
2022-12-17T21:54:30.129Z,-0.39
2022-12-17T21:56:58.303Z,-0.42
2022-12-17T21:59:26.244Z,-0.38
2022-12-17T22:01:57.506Z,-0.35
2022-12-17T22:04:29.157Z,-0.32
2022-12-17T22:07:02.051Z,-0.32
2022-12-17T22:09:47.100Z,-0.33
2022-12-17T22:12:40.456Z,-0.34
2022-12-17T22:15:11.000Z,-0.35
2022-12-17T22:17:41.158Z,-0.35
2022-12-17T22:20:10.203Z,-0.30
2022-12-17T22:22:38.267Z,-0.24
2022-12-17T22:25:09.192Z,-0.19
2022-12-17T22:27:40.739Z,-0.18
2022-12-17T22:30:32.270Z,-0.22
2022-12-17T22:33:10.743Z,-0.28
2022-12-17T22:37:46.633Z,-0.32
2022-12-17T22:43:55.004Z,-0.34
2022-12-17T22:44:32.403Z,-0.32
2022-12-17T22:44:51.402Z,-0.25
2022-12-17T22:47:21.107Z,-0.19
2022-12-17T22:49:49.001Z,-0.17
2022-12-17T22:52:17.891Z,-0.10
2022-12-17T22:54:46.841Z,-0.06
2022-12-17T22:57:36.712Z,-0.02
2022-12-17T23:00:10.754Z,0.03
2022-12-17T23:02:38.897Z,0.14
2022-12-17T23:05:07.162Z,0.15
2022-12-17T23:07:35.194Z,0.19
2022-12-17T23:10:04.191Z,0.21
2022-12-17T23:12:50.693Z,0.17
2022-12-17T23:15:24.736Z,0.19
2022-12-17T23:17:55.903Z,0.20
2022-12-17T23:20:24.431Z,0.23
2022-12-17T23:22:52.804Z,0.33
2022-12-17T23:25:21.490Z,0.34
2022-12-17T23:27:50.279Z,0.26
2022-12-17T23:30:20.211Z,0.21
2022-12-17T23:32:48.832Z,0.19
2022-12-17T23:35:16.748Z,0.21
2022-12-17T23:37:44.916Z,0.22
2022-12-17T23:40:14.007Z,0.18
2022-12-17T23:42:42.082Z,0.12
2022-12-17T23:45:11.665Z,0.14
2022-12-17T23:47:41.402Z,0.07
2022-12-17T23:50:11.825Z,0.08
2022-12-17T23:52:40.161Z,0.14
2022-12-17T23:55:08.745Z,0.13
2022-12-17T23:57:36.919Z,0.12
